createdAt,value
2023-02-03T00:00:01.091Z,9.40
2023-02-03T00:02:27.766Z,9.40
2023-02-03T00:04:54.430Z,9.50
2023-02-03T00:07:21.199Z,9.50
2023-02-03T00:09:47.970Z,9.40
2023-02-03T00:12:14.644Z,9.40
2023-02-03T00:14:41.302Z,9.40
2023-02-03T00:17:07.960Z,9.40
2023-02-03T00:19:34.676Z,9.50
2023-02-03T00:22:03.903Z,9.50
2023-02-03T00:24:32.977Z,9.50
2023-02-03T00:27:01.767Z,9.50
2023-02-03T00:29:28.432Z,9.40
2023-02-03T00:31:55.232Z,9.40
2023-02-03T00:34:22.081Z,9.40
2023-02-03T00:36:49.039Z,9.40
2023-02-03T00:39:17.321Z,9.40
2023-02-03T00:41:44.260Z,9.40
2023-02-03T00:44:11.302Z,9.50
2023-02-03T00:46:38.140Z,9.50
2023-02-03T00:49:05.205Z,9.50
2023-02-03T00:51:32.981Z,9.50
2023-02-03T00:54:00.008Z,9.50
2023-02-03T00:56:29.122Z,9.50
2023-02-03T00:58:55.800Z,9.50
2023-02-03T01:01:22.635Z,9.50
2023-02-03T01:03:50.101Z,9.60
2023-02-03T01:06:20.035Z,9.60
2023-02-03T01:08:47.029Z,9.50
2023-02-03T01:11:17.237Z,9.60
2023-02-03T01:13:44.710Z,9.60
2023-02-03T01:16:13.571Z,9.50
2023-02-03T01:18:41.060Z,9.60
2023-02-03T01:21:09.493Z,9.60
2023-02-03T01:23:37.467Z,9.60
2023-02-03T01:26:12.065Z,9.60
2023-02-03T01:28:39.268Z,9.60
2023-02-03T01:31:13.775Z,9.50
2023-02-03T01:33:41.086Z,9.60
2023-02-03T01:36:09.519Z,9.60
2023-02-03T01:38:37.906Z,9.60
2023-02-03T01:41:07.462Z,9.60
2023-02-03T01:43:39.636Z,9.60
2023-02-03T01:46:27.742Z,9.60
2023-02-03T01:49:01.784Z,9.60
2023-02-03T01:51:31.488Z,9.60
2023-02-03T01:54:01.212Z,9.60
2023-02-03T01:56:33.276Z,9.60
2023-02-03T01:59:00.911Z,9.70
2023-02-03T02:01:31.360Z,9.70
2023-02-03T02:04:00.968Z,9.70
2023-02-03T02:06:28.050Z,9.70
2023-02-03T02:08:57.748Z,9.70
2023-02-03T02:11:24.472Z,9.70
2023-02-03T02:13:53.151Z,9.70
2023-02-03T02:16:38.737Z,9.70
2023-02-03T02:19:23.600Z,9.70
2023-02-03T02:21:59.209Z,9.70
2023-02-03T02:24:25.813Z,9.70
2023-02-03T02:27:11.106Z,9.70
2023-02-03T02:30:04.253Z,9.70
2023-02-03T02:32:47.301Z,9.70
2023-02-03T02:35:33.488Z,9.70
2023-02-03T02:38:06.858Z,9.70
2023-02-03T02:40:43.226Z,9.70
2023-02-03T02:43:13.676Z,9.70
2023-02-03T02:45:49.383Z,9.70
2023-02-03T02:48:44.842Z,9.70
2023-02-03T02:51:17.899Z,9.70
2023-02-03T02:53:56.648Z,9.70
2023-02-03T02:56:25.536Z,9.60
2023-02-03T02:58:55.047Z,9.60
2023-02-03T03:01:21.797Z,9.60
2023-02-03T03:03:48.632Z,9.60
2023-02-03T03:06:29.102Z,9.60
2023-02-03T03:09:04.097Z,9.60
2023-02-03T03:11:36.861Z,9.60
2023-02-03T03:14:05.380Z,9.60
2023-02-03T03:16:35.407Z,9.60
2023-02-03T03:19:04.667Z,9.60
2023-02-03T03:21:37.696Z,9.60
2023-02-03T03:24:09.613Z,9.60
2023-02-03T03:26:42.123Z,9.60
2023-02-03T03:29:22.775Z,9.60
2023-02-03T03:31:49.728Z,9.60
2023-02-03T03:34:17.673Z,9.60
2023-02-03T03:36:49.240Z,9.60
2023-02-03T03:39:37.182Z,9.60
2023-02-03T03:42:26.302Z,9.60
2023-02-03T03:45:28.355Z,9.60
2023-02-03T03:48:01.742Z,9.60
2023-02-03T03:50:34.079Z,9.60
2023-02-03T03:53:02.940Z,9.60
2023-02-03T03:55:32.938Z,9.60
2023-02-03T03:58:14.548Z,9.60
2023-02-03T04:00:45.362Z,9.60
2023-02-03T04:03:19.685Z,9.50
2023-02-03T04:05:46.433Z,9.60
2023-02-03T04:08:15.516Z,9.60
2023-02-03T04:10:45.610Z,9.60
2023-02-03T04:13:12.645Z,9.60
2023-02-03T04:15:39.384Z,9.60
2023-02-03T04:18:06.493Z,9.60
2023-02-03T04:20:35.703Z,9.60
2023-02-03T04:23:02.445Z,9.70
2023-02-03T04:25:31.494Z,9.70
2023-02-03T04:27:58.327Z,9.70
2023-02-03T04:30:25.051Z,9.70
2023-02-03T04:32:54.127Z,9.70
2023-02-03T04:35:21.111Z,9.70
2023-02-03T04:37:47.788Z,9.70
2023-02-03T04:40:16.901Z,9.70
2023-02-03T04:42:43.611Z,9.70
2023-02-03T04:45:11.982Z,9.70
2023-02-03T04:47:39.735Z,9.60
2023-02-03T04:50:06.925Z,9.70
2023-02-03T04:52:35.836Z,9.70
2023-02-03T04:55:03.991Z,9.70
2023-02-03T04:57:30.923Z,9.70
2023-02-03T04:59:57.624Z,9.70
2023-02-03T05:02:24.341Z,9.70
2023-02-03T05:04:50.999Z,9.70
2023-02-03T05:07:17.632Z,9.70
2023-02-03T05:09:44.304Z,9.80
2023-02-03T05:12:11.013Z,9.70
2023-02-03T05:14:40.068Z,9.70
2023-02-03T05:17:08.915Z,9.70
2023-02-03T05:19:35.652Z,9.70
2023-02-03T05:22:02.411Z,9.70
2023-02-03T05:24:29.080Z,9.70
2023-02-03T05:26:58.272Z,9.60
2023-02-03T05:29:24.927Z,9.70
2023-02-03T05:31:51.724Z,9.70
2023-02-03T05:34:20.838Z,9.70
2023-02-03T05:36:47.666Z,9.70
2023-02-03T05:39:14.361Z,9.70
2023-02-03T05:41:53.472Z,9.70
2023-02-03T05:44:24.313Z,9.70
2023-02-03T05:46:53.264Z,9.70
2023-02-03T05:49:25.685Z,9.70
2023-02-03T05:51:54.222Z,9.70
2023-02-03T05:54:21.113Z,9.70
2023-02-03T05:56:50.194Z,9.70
2023-02-03T05:59:19.778Z,9.70
2023-02-03T06:01:46.548Z,9.70
2023-02-03T06:04:13.357Z,9.70
2023-02-03T06:06:40.080Z,9.70
2023-02-03T06:09:09.202Z,9.70
2023-02-03T06:11:38.477Z,9.70
2023-02-03T06:14:09.662Z,9.70
2023-02-03T06:16:36.449Z,9.60
2023-02-03T06:19:03.285Z,9.70
2023-02-03T06:21:29.995Z,9.70
2023-02-03T06:23:59.151Z,9.70
2023-02-03T06:26:25.998Z,9.60
2023-02-03T06:28:54.904Z,9.70
2023-02-03T06:31:21.640Z,9.70
2023-02-03T06:33:48.432Z,9.70
2023-02-03T06:36:15.147Z,9.70
2023-02-03T06:38:41.875Z,9.80
2023-02-03T06:41:10.707Z,9.80
2023-02-03T06:43:37.411Z,9.70
2023-02-03T06:46:04.269Z,9.70
2023-02-03T06:48:30.990Z,9.70
2023-02-03T06:51:00.115Z,9.60
2023-02-03T06:53:26.930Z,9.70
2023-02-03T06:55:53.642Z,9.70
2023-02-03T06:58:25.271Z,9.70
2023-02-03T07:00:55.266Z,9.70
2023-02-03T07:03:21.851Z,9.70
2023-02-03T07:05:48.505Z,9.80
2023-02-03T07:08:15.178Z,9.80
2023-02-03T07:10:41.887Z,9.80
2023-02-03T07:13:08.776Z,9.80
2023-02-03T07:15:37.939Z,9.80
2023-02-03T07:18:04.694Z,9.90
2023-02-03T07:20:32.894Z,9.90
2023-02-03T07:22:59.622Z,9.90
2023-02-03T07:25:28.693Z,9.90
2023-02-03T07:27:55.433Z,9.90
2023-02-03T07:30:22.423Z,9.80
2023-02-03T07:32:50.464Z,9.90
2023-02-03T07:35:17.633Z,9.90
2023-02-03T07:37:44.728Z,9.90
2023-02-03T07:40:15.054Z,9.80
2023-02-03T07:42:45.922Z,9.90
2023-02-03T07:45:14.651Z,9.90
2023-02-03T07:47:43.078Z,9.90
2023-02-03T07:50:11.483Z,9.90
2023-02-03T07:52:39.212Z,9.90
2023-02-03T07:55:06.191Z,10.00
2023-02-03T07:57:35.833Z,10.00
2023-02-03T08:00:07.565Z,9.90
2023-02-03T08:02:34.240Z,10.00
2023-02-03T08:05:01.032Z,10.00
2023-02-03T08:07:27.756Z,10.10
2023-02-03T08:09:54.438Z,10.10
2023-02-03T08:12:23.652Z,10.10
2023-02-03T08:14:50.396Z,10.10
2023-02-03T08:17:17.155Z,10.20
2023-02-03T08:19:43.871Z,10.20
2023-02-03T08:22:15.965Z,10.10
2023-02-03T08:24:47.022Z,10.10
2023-02-03T08:27:18.055Z,10.10
2023-02-03T08:29:46.009Z,10.10
2023-02-03T08:32:15.225Z,10.10
2023-02-03T08:34:42.025Z,10.10
2023-02-03T08:37:08.831Z,10.10
2023-02-03T08:39:35.645Z,10.10
2023-02-03T08:42:04.108Z,10.10
2023-02-03T08:44:32.096Z,10.20
2023-02-03T08:46:59.723Z,10.20
2023-02-03T08:49:28.730Z,10.20
2023-02-03T08:51:56.641Z,10.20
2023-02-03T08:54:24.152Z,10.20
2023-02-03T08:56:51.594Z,10.30
2023-02-03T08:59:18.373Z,10.30
2023-02-03T09:01:45.901Z,10.30
2023-02-03T09:04:13.155Z,10.30
2023-02-03T09:06:40.334Z,10.30
2023-02-03T09:09:07.340Z,10.30
2023-02-03T09:11:34.067Z,10.30
2023-02-03T09:14:00.720Z,10.30
2023-02-03T09:16:27.453Z,10.30
2023-02-03T09:18:56.375Z,10.30
2023-02-03T09:21:33.075Z,10.30
2023-02-03T09:24:08.881Z,10.30
2023-02-03T09:26:38.155Z,10.30
2023-02-03T09:29:05.037Z,10.30
2023-02-03T09:31:31.798Z,10.30
2023-02-03T09:34:01.872Z,10.30
2023-02-03T09:36:28.586Z,10.30
2023-02-03T09:38:58.273Z,10.30
2023-02-03T09:41:49.215Z,10.30
2023-02-03T09:44:18.955Z,10.30
2023-02-03T09:46:50.864Z,10.30
2023-02-03T09:49:26.292Z,10.20
2023-02-03T09:52:13.164Z,10.20
2023-02-03T09:54:46.142Z,10.20
2023-02-03T09:57:23.805Z,10.20
2023-02-03T09:59:54.636Z,10.30
2023-02-03T10:02:30.458Z,10.30
2023-02-03T10:05:15.776Z,10.30
2023-02-03T10:08:09.958Z,10.30
2023-02-03T10:11:10.522Z,10.30
2023-02-03T10:13:43.029Z,10.30
2023-02-03T10:16:29.788Z,10.30
2023-02-03T10:18:59.852Z,10.40
2023-02-03T10:21:41.221Z,10.40
2023-02-03T10:24:20.247Z,10.40
2023-02-03T10:26:47.191Z,10.40
2023-02-03T10:29:37.624Z,10.40
2023-02-03T10:32:10.081Z,10.40
2023-02-03T10:34:37.750Z,10.30
2023-02-03T10:37:26.164Z,10.30
2023-02-03T10:39:57.613Z,10.40
2023-02-03T10:42:24.482Z,10.40
2023-02-03T10:44:59.198Z,10.40
2023-02-03T10:47:34.248Z,10.40
2023-02-03T10:50:06.412Z,10.40
2023-02-03T10:52:35.362Z,10.40
2023-02-03T10:55:08.259Z,10.40
2023-02-03T10:57:39.411Z,10.40
2023-02-03T11:00:24.115Z,10.50
2023-02-03T11:03:24.838Z,10.60
2023-02-03T11:06:15.261Z,10.80
2023-02-03T11:08:46.980Z,10.80
2023-02-03T11:11:20.110Z,10.90
2023-02-03T11:13:48.802Z,11.10
2023-02-03T11:16:24.464Z,11.20
2023-02-03T11:19:04.638Z,11.20
2023-02-03T11:21:37.443Z,11.30
2023-02-03T11:24:21.029Z,11.30
2023-02-03T11:26:54.310Z,11.40
2023-02-03T11:29:26.133Z,11.40
2023-02-03T11:31:58.324Z,11.40
2023-02-03T11:34:29.769Z,11.30
2023-02-03T11:36:59.781Z,11.20
2023-02-03T11:39:35.690Z,11.20
2023-02-03T11:42:03.448Z,11.10
2023-02-03T11:44:33.588Z,11.10
2023-02-03T11:47:11.832Z,11.10
2023-02-03T11:49:55.617Z,11.20
2023-02-03T11:52:31.114Z,11.20
2023-02-03T11:55:15.594Z,11.20
2023-02-03T11:58:00.113Z,11.20
2023-02-03T12:00:38.633Z,11.10
2023-02-03T12:03:35.663Z,11.00
2023-02-03T12:06:10.094Z,10.90
2023-02-03T12:09:20.651Z,10.90
2023-02-03T12:12:07.653Z,10.90
2023-02-03T12:15:06.843Z,10.90
2023-02-03T12:18:10.983Z,10.90
2023-02-03T12:20:43.608Z,10.90
2023-02-03T12:23:23.703Z,10.80
2023-02-03T12:26:02.659Z,10.70
2023-02-03T12:28:41.355Z,10.80
2023-02-03T12:31:30.670Z,10.70
2023-02-03T12:34:06.663Z,10.70
2023-02-03T12:36:42.837Z,10.70
2023-02-03T12:39:12.345Z,10.70
2023-02-03T12:42:03.148Z,10.80
2023-02-03T12:44:43.402Z,10.80
2023-02-03T12:47:29.345Z,10.70
2023-02-03T12:50:05.559Z,10.70
2023-02-03T12:52:40.769Z,10.60
2023-02-03T12:55:45.133Z,10.60
2023-02-03T12:58:23.233Z,10.60
2023-02-03T13:01:17.106Z,10.70
2023-02-03T13:04:11.485Z,10.60
2023-02-03T13:07:02.860Z,10.60
2023-02-03T13:09:43.534Z,10.70
2023-02-03T13:12:16.379Z,10.70
2023-02-03T13:15:04.916Z,10.80
2023-02-03T13:17:41.105Z,10.80
2023-02-03T13:20:27.039Z,10.80
2023-02-03T13:22:53.962Z,10.80
2023-02-03T13:25:31.724Z,10.70
2023-02-03T13:28:16.525Z,10.70
2023-02-03T13:30:52.201Z,10.70
2023-02-03T13:33:30.936Z,10.70
2023-02-03T13:36:15.815Z,10.60
2023-02-03T13:38:56.180Z,10.60
2023-02-03T13:41:28.554Z,10.60
2023-02-03T13:44:00.042Z,10.70
2023-02-03T13:46:32.068Z,10.70
2023-02-03T13:49:01.507Z,10.70
2023-02-03T13:51:46.180Z,10.70
2023-02-03T13:54:27.185Z,10.70
2023-02-03T13:57:19.544Z,10.60
2023-02-03T13:59:50.419Z,10.60
2023-02-03T14:02:20.198Z,10.60
2023-02-03T14:04:46.940Z,10.60
2023-02-03T14:07:33.376Z,10.60
2023-02-03T14:10:24.075Z,10.60
2023-02-03T14:12:50.754Z,10.60
2023-02-03T14:15:23.186Z,10.50
2023-02-03T14:18:24.688Z,10.50
2023-02-03T14:20:55.608Z,10.40
2023-02-03T14:23:41.782Z,10.50
2023-02-03T14:26:30.485Z,10.40
2023-02-03T14:28:57.906Z,10.40
2023-02-03T14:31:26.354Z,10.40
2023-02-03T14:34:05.117Z,10.40
2023-02-03T14:36:38.663Z,10.50
2023-02-03T14:39:17.916Z,10.50
2023-02-03T14:42:03.690Z,10.50
2023-02-03T14:44:54.539Z,10.50
2023-02-03T14:47:55.221Z,10.50
2023-02-03T14:51:03.204Z,10.50
2023-02-03T14:53:57.973Z,10.50
2023-02-03T14:56:58.980Z,10.40
2023-02-03T14:59:30.507Z,10.40
2023-02-03T15:01:57.134Z,10.30
2023-02-03T15:04:24.711Z,10.30
2023-02-03T15:06:53.154Z,10.30
2023-02-03T15:09:38.916Z,10.30
2023-02-03T15:12:19.312Z,10.30
2023-02-03T15:14:46.020Z,10.30
2023-02-03T15:17:28.874Z,10.30
2023-02-03T15:19:55.619Z,10.30
2023-02-03T15:22:31.066Z,10.30
2023-02-03T15:25:04.306Z,10.30
2023-02-03T15:27:34.533Z,10.20
2023-02-03T15:30:25.066Z,10.30
2023-02-03T15:33:08.897Z,10.20
2023-02-03T15:35:37.530Z,10.30
2023-02-03T15:38:10.870Z,10.20
2023-02-03T15:40:54.563Z,10.20
2023-02-03T15:43:21.227Z,10.20
2023-02-03T15:46:13.121Z,10.20
2023-02-03T15:48:50.303Z,10.30
2023-02-03T15:51:26.255Z,10.30
2023-02-03T15:54:15.076Z,10.30
2023-02-03T15:56:45.256Z,10.30
2023-02-03T15:59:24.996Z,10.30
2023-02-03T16:01:52.688Z,10.30
2023-02-03T16:04:21.425Z,10.30
2023-02-03T16:06:53.225Z,10.30
2023-02-03T16:09:39.294Z,10.30
2023-02-03T16:12:35.693Z,10.30
2023-02-03T16:15:02.990Z,10.30
2023-02-03T16:17:35.543Z,10.30
2023-02-03T16:20:14.329Z,10.30
2023-02-03T16:22:46.862Z,10.20
2023-02-03T16:25:21.128Z,10.30
2023-02-03T16:28:39.976Z,10.20
2023-02-03T16:31:40.966Z,10.20
2023-02-03T16:34:44.059Z,10.20
2023-02-03T16:37:43.823Z,10.20
2023-02-03T16:40:30.892Z,10.20
2023-02-03T16:43:18.264Z,10.20
2023-02-03T16:46:03.705Z,10.20
2023-02-03T16:48:51.733Z,10.20
2023-02-03T16:51:18.541Z,10.20
2023-02-03T16:53:48.654Z,10.10
2023-02-03T16:56:18.563Z,10.10
2023-02-03T16:58:47.667Z,10.10
2023-02-03T17:01:14.426Z,10.20
2023-02-03T17:03:44.414Z,10.10
2023-02-03T17:06:14.944Z,10.10
2023-02-03T17:08:42.273Z,10.00
2023-02-03T17:11:20.925Z,10.00
2023-02-03T17:13:50.749Z,9.90
2023-02-03T17:16:22.998Z,10.00
2023-02-03T17:18:49.915Z,9.80
2023-02-03T17:21:21.796Z,9.80
2023-02-03T17:23:48.711Z,9.80
2023-02-03T17:26:15.549Z,9.80
2023-02-03T17:28:43.228Z,9.70
2023-02-03T17:31:18.023Z,9.70
2023-02-03T17:33:45.276Z,9.70
2023-02-03T17:36:14.956Z,9.70
2023-02-03T17:55:13.382Z,9.50
2023-02-03T17:57:44.532Z,9.50
2023-02-03T18:00:11.818Z,9.40
2023-02-03T18:02:38.541Z,9.40
2023-02-03T18:05:05.628Z,9.50
2023-02-03T18:07:34.828Z,9.40
2023-02-03T18:10:01.532Z,9.40
2023-02-03T18:12:28.300Z,9.40
2023-02-03T18:14:57.909Z,9.40
2023-02-03T18:17:24.643Z,9.40
2023-02-03T18:19:56.293Z,9.50
2023-02-03T18:22:23.712Z,9.50
2023-02-03T18:24:54.812Z,9.50
2023-02-03T18:27:21.585Z,9.50
2023-02-03T18:29:48.804Z,9.50
2023-02-03T18:32:16.596Z,9.50
2023-02-03T18:34:43.582Z,9.50
2023-02-03T18:37:10.314Z,9.50
2023-02-03T18:39:37.001Z,9.50
2023-02-03T18:42:04.274Z,9.50
2023-02-03T18:44:31.708Z,9.50
2023-02-03T18:47:06.458Z,9.50
2023-02-03T18:49:36.580Z,9.40
2023-02-03T18:52:04.290Z,9.50
2023-02-03T18:54:31.072Z,9.40
2023-02-03T18:57:02.880Z,9.40
2023-02-03T18:59:29.745Z,9.40
2023-02-03T19:01:56.404Z,9.40
2023-02-03T19:04:23.388Z,9.40
2023-02-03T19:06:51.394Z,9.40
2023-02-03T19:09:19.259Z,9.40
2023-02-03T19:11:48.502Z,9.30
2023-02-03T19:14:16.350Z,9.30
2023-02-03T19:16:43.753Z,9.30
2023-02-03T19:19:12.966Z,9.30
2023-02-03T19:21:39.673Z,9.30
2023-02-03T19:24:09.104Z,9.40
2023-02-03T19:26:35.770Z,9.40
2023-02-03T19:29:02.444Z,9.40
2023-02-03T19:31:29.343Z,9.40
2023-02-03T19:33:58.946Z,9.40
2023-02-03T19:36:27.447Z,9.40
2023-02-03T19:38:54.857Z,9.40
2023-02-03T19:41:22.857Z,9.40
2023-02-03T19:43:52.047Z,9.40
2023-02-03T19:46:21.583Z,9.40
2023-02-03T19:48:51.288Z,9.40
2023-02-03T19:51:18.038Z,9.40
2023-02-03T19:53:47.114Z,9.40
2023-02-03T19:56:15.985Z,9.40
2023-02-03T19:58:50.507Z,9.40
2023-02-03T20:01:19.778Z,9.40
2023-02-03T20:03:48.970Z,9.50
2023-02-03T20:06:16.333Z,9.50
2023-02-03T20:08:43.200Z,9.50
2023-02-03T20:11:12.457Z,9.50
2023-02-03T20:13:43.355Z,9.50
2023-02-03T20:16:15.062Z,9.50
2023-02-03T20:18:41.782Z,9.50
2023-02-03T20:21:09.523Z,9.50
2023-02-03T20:23:36.857Z,9.50
2023-02-03T20:26:03.669Z,9.50
2023-02-03T20:28:30.593Z,9.50
2023-02-03T20:31:00.522Z,9.50
2023-02-03T20:33:29.228Z,9.50
2023-02-03T20:35:58.776Z,9.50
2023-02-03T20:38:28.492Z,9.50
2023-02-03T20:40:55.293Z,9.50
2023-02-03T20:43:27.324Z,9.50
2023-02-03T20:45:54.784Z,9.60
2023-02-03T20:48:25.393Z,9.50
2023-02-03T20:50:52.356Z,9.50
2023-02-03T20:53:21.767Z,9.50
2023-02-03T20:55:51.791Z,9.50
2023-02-03T20:58:25.548Z,9.50
2023-02-03T21:00:53.053Z,9.50
2023-02-03T21:03:39.023Z,9.50
2023-02-03T21:06:32.955Z,9.50
2023-02-03T21:09:15.414Z,9.40
2023-02-03T21:11:43.077Z,9.50
2023-02-03T21:14:39.183Z,9.40
2023-02-03T21:17:19.285Z,9.40
2023-02-03T21:19:46.462Z,9.40
2023-02-03T21:22:27.189Z,9.50
2023-02-03T21:24:58.979Z,9.50
2023-02-03T21:27:34.052Z,9.50
2023-02-03T21:30:05.881Z,9.40
2023-02-03T21:32:41.883Z,9.50
2023-02-03T21:35:31.842Z,9.40
2023-02-03T21:38:02.019Z,9.40
2023-02-03T21:40:32.262Z,9.40
2023-02-03T21:43:00.045Z,9.40
2023-02-03T21:45:38.920Z,9.50
2023-02-03T21:48:29.812Z,9.50
2023-02-03T21:51:04.240Z,9.40
2023-02-03T21:53:36.055Z,9.40
2023-02-03T21:56:23.932Z,9.40
2023-02-03T21:58:57.436Z,9.40
2023-02-03T22:01:35.484Z,9.40
2023-02-03T22:04:04.035Z,9.40
2023-02-03T22:06:44.462Z,9.40
2023-02-03T22:09:16.822Z,9.40
2023-02-03T22:11:44.085Z,9.40
2023-02-03T22:14:11.788Z,9.40
2023-02-03T22:16:38.766Z,9.40
2023-02-03T22:19:05.628Z,9.40
2023-02-03T22:21:35.816Z,9.50
2023-02-03T22:24:02.759Z,9.40
2023-02-03T22:26:29.486Z,9.50
2023-02-03T22:28:56.200Z,9.40
2023-02-03T22:31:23.587Z,9.40
2023-02-03T22:33:50.403Z,9.30
2023-02-03T22:36:17.131Z,9.30
2023-02-03T22:38:43.896Z,9.30
2023-02-03T22:41:14.287Z,9.30
2023-02-03T22:43:41.301Z,9.30
2023-02-03T22:46:11.015Z,9.30
2023-02-03T22:48:40.026Z,9.30
2023-02-03T22:51:06.715Z,9.30
2023-02-03T22:53:34.663Z,9.30
2023-02-03T22:56:01.585Z,9.30
2023-02-03T22:58:28.318Z,9.30
2023-02-03T23:00:55.038Z,9.30
2023-02-03T23:03:21.888Z,9.40
2023-02-03T23:05:48.610Z,9.30
2023-02-03T23:08:17.655Z,9.40
2023-02-03T23:10:48.165Z,9.30
2023-02-03T23:13:17.097Z,9.40
2023-02-03T23:15:48.691Z,9.40
2023-02-03T23:18:15.394Z,9.30
2023-02-03T23:20:42.087Z,9.30
2023-02-03T23:23:10.909Z,9.30
2023-02-03T23:25:37.580Z,9.30
2023-02-03T23:28:04.443Z,9.30
2023-02-03T23:30:31.434Z,9.30
2023-02-03T23:33:00.653Z,9.30
2023-02-03T23:35:45.330Z,9.30
2023-02-03T23:38:16.056Z,9.30
2023-02-03T23:40:45.166Z,9.20
2023-02-03T23:43:14.302Z,9.20
2023-02-03T23:45:44.325Z,9.30
2023-02-03T23:48:11.028Z,9.30
2023-02-03T23:50:37.919Z,9.30
2023-02-03T23:53:04.857Z,9.30
2023-02-03T23:55:31.623Z,9.30
2023-02-03T23:57:58.284Z,9.30
